createdAt,value
2018-06-01T00:01:53.986Z,77.57
2018-06-01T00:04:22.270Z,77.63
2018-06-01T00:06:50.563Z,77.41
2018-06-01T00:09:18.840Z,78.88
2018-06-01T00:11:47.136Z,78.22
2018-06-01T00:14:15.422Z,77.74
2018-06-01T00:16:43.735Z,78.37
2018-06-01T00:19:12.010Z,77.02
2018-06-01T00:21:40.294Z,76.77
2018-06-01T00:24:08.579Z,77.95
2018-06-01T00:26:36.854Z,77.24
2018-06-01T00:29:05.146Z,77.79
2018-06-01T00:31:33.430Z,78.70
2018-06-01T00:34:01.731Z,79.31
2018-06-01T00:36:30.030Z,79.36
2018-06-01T00:38:58.313Z,79.22
2018-06-01T00:41:26.595Z,78.96
2018-06-01T00:43:54.895Z,78.12
2018-06-01T00:46:23.174Z,77.62
2018-06-01T00:48:51.453Z,76.68
2018-06-01T00:51:19.742Z,77.11
2018-06-01T00:53:48.035Z,77.96
2018-06-01T00:56:16.338Z,77.89
2018-06-01T00:58:44.624Z,77.59
2018-06-01T01:01:12.915Z,76.87
2018-06-01T01:03:41.196Z,77.54
2018-06-01T01:06:09.498Z,77.83
2018-06-01T01:08:37.781Z,78.20
2018-06-01T01:11:06.071Z,77.96
2018-06-01T01:13:34.350Z,79.09
2018-06-01T01:16:02.642Z,79.31
2018-06-01T01:18:30.947Z,78.69
2018-06-01T01:20:59.224Z,78.77
2018-06-01T01:23:27.513Z,78.61
2018-06-01T01:25:55.800Z,78.47
2018-06-01T01:28:24.098Z,78.69
2018-06-01T01:30:52.370Z,78.06
2018-06-01T01:33:20.666Z,78.56
2018-06-01T01:35:48.955Z,77.92
2018-06-01T01:38:17.243Z,78.08
2018-06-01T01:40:57.298Z,77.62
2018-06-01T01:43:25.603Z,78.97
2018-06-01T01:45:53.889Z,79.53
2018-06-01T01:48:22.165Z,78.79
2018-06-01T01:50:50.454Z,78.82
2018-06-01T01:53:18.746Z,79.40
2018-06-01T01:55:47.047Z,80.00
2018-06-01T01:58:15.352Z,79.60
2018-06-01T02:00:43.653Z,78.95
2018-06-01T02:03:11.940Z,79.11
2018-06-01T02:05:40.245Z,78.80
2018-06-01T02:08:08.526Z,78.50
2018-06-01T02:10:36.811Z,78.79
2018-06-01T02:13:11.546Z,79.93
2018-06-01T02:15:39.825Z,79.58
2018-06-01T02:18:08.118Z,79.49
2018-06-01T02:20:36.403Z,78.41
2018-06-01T02:23:04.690Z,78.27
2018-06-01T02:25:33.005Z,79.02
2018-06-01T02:28:01.330Z,78.48
2018-06-01T02:30:29.615Z,79.84
2018-06-01T02:32:57.895Z,79.24
2018-06-01T02:35:26.189Z,79.90
2018-06-01T02:37:54.495Z,81.08
2018-06-01T02:40:22.789Z,81.93
2018-06-01T02:42:51.071Z,81.89
2018-06-01T02:45:19.373Z,80.93
2018-06-01T02:47:47.654Z,79.66
2018-06-01T02:50:15.958Z,80.26
2018-06-01T02:52:44.251Z,81.32
2018-06-01T02:55:12.531Z,79.99
2018-06-01T02:57:40.820Z,80.78
2018-06-01T03:00:09.096Z,82.71
2018-06-01T03:02:37.370Z,82.53
2018-06-01T03:05:05.663Z,82.99
2018-06-01T03:07:33.939Z,82.98
2018-06-01T03:10:02.224Z,83.86
2018-06-01T03:12:30.523Z,83.79
2018-06-01T03:14:58.795Z,84.42
2018-06-01T03:17:27.062Z,84.52
2018-06-01T03:19:55.347Z,83.88
2018-06-01T03:22:23.627Z,83.22
2018-06-01T03:24:51.918Z,82.31
2018-06-01T03:27:20.193Z,82.21
2018-06-01T03:29:48.479Z,82.82
2018-06-01T03:32:16.746Z,81.89
2018-06-01T03:34:45.042Z,81.70
2018-06-01T03:37:13.323Z,80.36
2018-06-01T03:39:41.594Z,80.91
2018-06-01T03:42:09.881Z,81.99
2018-06-01T03:44:38.170Z,80.52
2018-06-01T03:47:06.452Z,79.91
2018-06-01T03:49:34.722Z,81.20
2018-06-01T03:52:03.935Z,81.86
2018-06-01T03:54:32.214Z,82.34
2018-06-01T03:57:01.259Z,81.76
2018-06-01T03:59:29.503Z,80.74
2018-06-01T04:01:58.655Z,80.62
2018-06-01T04:04:26.930Z,81.41
2018-06-01T04:06:55.229Z,81.20
2018-06-01T04:09:29.849Z,81.97
2018-06-01T04:11:58.125Z,82.80
2018-06-01T04:14:26.395Z,82.32
2018-06-01T04:16:54.675Z,81.87
2018-06-01T04:19:22.946Z,81.53
2018-06-01T04:21:51.226Z,82.23
2018-06-01T04:24:19.519Z,82.49
2018-06-01T04:26:47.809Z,82.83
2018-06-01T04:29:16.082Z,83.08
2018-06-01T04:31:44.370Z,82.93
2018-06-01T04:34:12.642Z,83.08
2018-06-01T04:36:40.935Z,82.97
2018-06-01T04:39:09.194Z,82.87
2018-06-01T04:41:37.482Z,83.01
2018-06-01T04:44:05.751Z,82.84
2018-06-01T04:46:34.047Z,82.50
2018-06-01T04:49:02.350Z,83.12
2018-06-01T04:51:30.671Z,82.41
2018-06-01T04:53:58.971Z,82.24
2018-06-01T04:56:27.238Z,83.60
2018-06-01T04:58:55.529Z,83.16
2018-06-01T05:01:23.800Z,82.76
2018-06-01T05:03:52.080Z,82.31
2018-06-01T05:06:20.349Z,82.10
2018-06-01T05:08:48.647Z,81.89
2018-06-01T05:11:16.927Z,81.22
2018-06-01T05:13:45.202Z,81.81
2018-06-01T05:16:13.495Z,81.55
2018-06-01T05:18:41.772Z,80.80
2018-06-01T05:21:10.067Z,81.63
2018-06-01T05:23:38.346Z,81.14
2018-06-01T05:26:06.927Z,81.51
2018-06-01T05:28:35.207Z,80.16
2018-06-01T05:31:03.501Z,80.32
2018-06-01T05:33:31.809Z,80.79
2018-06-01T05:36:00.050Z,80.41
2018-06-01T05:38:28.334Z,80.98
2018-06-01T05:40:56.609Z,81.68
2018-06-01T05:43:24.887Z,81.60
2018-06-01T05:45:53.159Z,80.86
2018-06-01T05:48:21.452Z,80.97
2018-06-01T05:50:49.731Z,81.16
2018-06-01T05:53:17.998Z,81.12
2018-06-01T05:55:46.283Z,81.20
2018-06-01T05:58:14.560Z,81.07
2018-06-01T06:00:42.846Z,80.70
2018-06-01T06:03:11.116Z,80.26
2018-06-01T06:05:39.394Z,81.02
2018-06-01T06:08:07.658Z,80.25
2018-06-01T06:10:35.958Z,81.48
2018-06-01T06:13:05.141Z,80.90
2018-06-01T06:15:33.407Z,80.66
2018-06-01T06:18:01.690Z,80.89
2018-06-01T06:20:30.163Z,81.28
2018-06-01T06:22:58.461Z,80.68
2018-06-01T06:25:26.737Z,81.66
2018-06-01T06:28:02.245Z,80.54
2018-06-01T06:30:30.499Z,81.04
2018-06-01T06:32:58.793Z,81.46
2018-06-01T06:35:27.059Z,82.50
2018-06-01T06:37:55.361Z,81.82
2018-06-01T06:40:23.642Z,81.59
2018-06-01T06:42:51.926Z,80.81
2018-06-01T06:45:20.214Z,81.15
2018-06-01T06:47:48.483Z,80.34
2018-06-01T06:50:16.762Z,81.68
2018-06-01T06:52:45.034Z,81.17
2018-06-01T06:55:13.338Z,79.48
2018-06-01T06:57:41.643Z,79.57
2018-06-01T07:00:09.927Z,80.11
2018-06-01T07:02:38.224Z,79.80
2018-06-01T07:05:06.480Z,79.87
2018-06-01T07:07:34.770Z,79.94
2018-06-01T07:10:03.078Z,80.82
2018-06-01T07:12:31.371Z,80.68
2018-06-01T07:14:59.666Z,80.18
2018-06-01T07:17:27.963Z,80.82
2018-06-01T07:19:56.246Z,79.36
2018-06-01T07:22:24.739Z,80.20
2018-06-01T07:24:52.970Z,80.20
2018-06-01T07:27:21.254Z,81.28
2018-06-01T07:29:49.544Z,80.88
2018-06-01T07:32:17.824Z,80.61
2018-06-01T07:34:46.102Z,80.57
2018-06-01T07:37:14.378Z,81.55
2018-06-01T07:39:42.702Z,81.92
2018-06-01T07:42:10.991Z,81.92
2018-06-01T07:44:39.259Z,81.30
2018-06-01T07:47:07.540Z,81.18
2018-06-01T07:49:35.835Z,82.29
2018-06-01T07:52:04.177Z,81.52
2018-06-01T07:54:32.427Z,80.11
2018-06-01T07:57:00.694Z,81.40
2018-06-01T07:59:28.967Z,80.39
2018-06-01T08:01:57.259Z,78.96
2018-06-01T08:04:25.534Z,78.93
2018-06-01T08:06:53.830Z,78.15
2018-06-01T08:09:29.267Z,78.31
2018-06-01T08:11:57.567Z,78.28
2018-06-01T08:14:25.845Z,79.08
2018-06-01T08:16:54.134Z,78.47
2018-06-01T08:19:22.438Z,78.74
2018-06-01T08:21:50.717Z,79.53
2018-06-01T08:24:19.026Z,79.18
2018-06-01T08:26:47.307Z,79.60
2018-06-01T08:29:15.606Z,78.56
2018-06-01T08:31:43.894Z,78.78
2018-06-01T08:34:12.176Z,78.92
2018-06-01T08:36:41.471Z,77.66
2018-06-01T08:39:09.718Z,77.98
2018-06-01T08:41:38.006Z,78.43
2018-06-01T08:44:06.285Z,79.31
2018-06-01T08:46:34.590Z,78.05
2018-06-01T08:49:02.868Z,78.29
2018-06-01T08:51:31.151Z,79.54
2018-06-01T08:53:59.459Z,78.65
2018-06-01T08:56:27.752Z,76.42
2018-06-01T08:58:56.081Z,78.08
2018-06-01T09:01:24.330Z,78.55
2018-06-01T09:03:52.622Z,76.96
2018-06-01T09:06:20.910Z,76.58
2018-06-01T09:08:49.211Z,78.37
2018-06-01T09:11:17.497Z,77.64
2018-06-01T09:13:45.782Z,79.02
2018-06-01T09:16:14.074Z,79.01
2018-06-01T09:18:42.365Z,78.99
2018-06-01T09:21:10.662Z,77.53
2018-06-01T09:23:38.961Z,78.82
2018-06-01T09:26:07.238Z,77.03
2018-06-01T09:28:35.527Z,79.79
2018-06-01T09:31:03.822Z,78.96
2018-06-01T09:33:32.112Z,76.52
2018-06-01T09:36:00.413Z,78.21
2018-06-01T09:38:28.723Z,78.52
2018-06-01T09:40:57.017Z,80.13
2018-06-01T09:43:25.307Z,79.24
2018-06-01T09:45:53.604Z,78.69
2018-06-01T09:48:21.895Z,79.00
2018-06-01T09:50:50.178Z,77.39
2018-06-01T09:53:18.493Z,76.85
2018-06-01T09:55:46.790Z,77.67
2018-06-01T09:58:15.074Z,77.78
2018-06-01T10:00:48.970Z,78.42
2018-06-01T10:03:17.257Z,78.98
2018-06-01T10:05:45.700Z,77.52
2018-06-01T10:08:14.079Z,78.66
2018-06-01T10:10:42.537Z,77.31
2018-06-01T10:13:10.874Z,78.35
2018-06-01T10:15:39.381Z,77.97
2018-06-01T10:18:07.734Z,78.19
2018-06-01T10:20:36.022Z,77.81
2018-06-01T10:23:04.597Z,77.40
2018-06-01T10:25:32.934Z,76.81
2018-06-01T10:28:01.375Z,77.45
2018-06-01T10:30:29.660Z,78.12
2018-06-01T10:32:57.976Z,78.18
2018-06-01T10:35:26.343Z,77.33
2018-06-01T10:37:54.686Z,78.40
2018-06-01T10:40:22.970Z,77.24
2018-06-01T10:42:51.269Z,78.51
2018-06-01T10:45:19.596Z,78.81
2018-06-01T10:47:47.923Z,78.35
2018-06-01T10:50:16.211Z,78.07
2018-06-01T10:52:44.523Z,79.04
2018-06-01T10:55:12.824Z,78.44
2018-06-01T10:57:41.137Z,79.46
2018-06-01T11:00:09.445Z,78.82
2018-06-01T11:02:37.742Z,78.87
2018-06-01T11:05:06.183Z,80.63
2018-06-01T11:07:34.472Z,79.15
2018-06-01T11:10:02.752Z,80.14
2018-06-01T11:12:31.043Z,80.13
2018-06-01T11:14:59.319Z,80.06
2018-06-01T11:17:27.622Z,80.32
2018-06-01T11:19:55.890Z,80.39
2018-06-01T11:22:24.178Z,79.75
2018-06-01T11:24:52.470Z,79.37
2018-06-01T11:27:20.747Z,79.59
2018-06-01T11:29:49.019Z,79.84
2018-06-01T11:32:17.306Z,80.37
2018-06-01T11:34:45.574Z,79.89
2018-06-01T11:37:13.874Z,80.69
2018-06-01T11:39:42.154Z,79.88
2018-06-01T11:42:10.427Z,79.56
2018-06-01T11:44:38.710Z,79.63
2018-06-01T11:47:06.987Z,80.30
2018-06-01T11:49:35.272Z,79.00
2018-06-01T11:54:30.879Z,78.86
2018-06-01T11:56:59.240Z,79.21
2018-06-01T11:59:27.510Z,78.98
2018-06-01T12:01:55.790Z,78.73
2018-06-01T12:04:24.071Z,80.61
2018-06-01T12:06:52.361Z,80.46
2018-06-01T12:09:20.636Z,80.38
2018-06-01T12:11:48.902Z,80.17
2018-06-01T12:14:17.177Z,80.00
2018-06-01T12:16:45.463Z,80.12
2018-06-01T12:19:13.743Z,79.91
2018-06-01T12:21:42.018Z,80.70
2018-06-01T12:24:10.310Z,80.00
2018-06-01T12:26:38.574Z,79.47
2018-06-01T12:29:06.860Z,80.41
2018-06-01T12:31:35.131Z,80.79
2018-06-01T12:34:04.187Z,81.69
2018-06-01T12:36:32.461Z,81.43
2018-06-01T12:39:00.748Z,81.23
2018-06-01T12:41:29.032Z,81.01
2018-06-01T12:43:57.330Z,79.79
2018-06-01T12:46:25.628Z,80.45
2018-06-01T12:48:53.907Z,81.19
2018-06-01T12:51:22.194Z,81.44
2018-06-01T12:53:50.465Z,81.27
2018-06-01T12:56:36.359Z,81.14
2018-06-01T12:59:04.630Z,81.75
2018-06-01T13:01:32.901Z,81.32
2018-06-01T13:04:01.188Z,80.97
2018-06-01T13:06:29.469Z,80.99
2018-06-01T13:08:57.781Z,79.93
2018-06-01T13:11:26.014Z,80.58
2018-06-01T13:13:54.294Z,80.96
2018-06-01T13:16:22.577Z,81.12
2018-06-01T13:18:50.845Z,80.29
2018-06-01T13:21:19.122Z,81.27
2018-06-01T13:23:47.398Z,82.04
2018-06-01T13:26:15.677Z,81.77
2018-06-01T13:28:43.951Z,81.78
2018-06-01T13:31:12.214Z,82.46
2018-06-01T13:33:40.510Z,82.40
2018-06-01T13:36:08.765Z,80.36
2018-06-01T13:38:37.047Z,79.39
2018-06-01T13:41:05.340Z,80.49
2018-06-01T13:43:33.614Z,81.88
2018-06-01T13:46:01.883Z,80.93
2018-06-01T13:48:30.166Z,81.45
2018-06-01T13:50:58.451Z,80.43
2018-06-01T13:53:26.733Z,79.86
2018-06-01T13:55:55.014Z,79.92
2018-06-01T13:58:23.294Z,81.41
2018-06-01T14:00:51.569Z,81.09
2018-06-01T14:03:19.840Z,80.96
2018-06-01T14:05:48.118Z,81.33
2018-06-01T14:08:16.386Z,80.13
2018-06-01T14:10:44.666Z,81.08
2018-06-01T14:13:12.938Z,81.08
2018-06-01T14:15:41.194Z,80.52
2018-06-01T14:18:09.476Z,81.32
2018-06-01T14:20:37.742Z,80.79
2018-06-01T14:23:06.022Z,80.91
2018-06-01T14:25:34.298Z,81.14
2018-06-01T14:28:02.582Z,81.43
2018-06-01T14:30:30.894Z,81.13
2018-06-01T14:32:59.170Z,80.93
2018-06-01T14:35:27.446Z,81.90
2018-06-01T14:37:55.999Z,80.77
2018-06-01T14:40:24.274Z,80.10
2018-06-01T14:42:52.547Z,80.89
2018-06-01T14:45:20.833Z,80.54
2018-06-01T14:47:49.098Z,81.37
2018-06-01T14:50:17.386Z,81.65
2018-06-01T14:52:45.663Z,81.64
2018-06-01T14:55:14.722Z,81.02
2018-06-01T14:57:43.002Z,81.55
2018-06-01T15:00:11.270Z,81.32
2018-06-01T15:02:39.562Z,81.98
2018-06-01T15:05:07.830Z,82.07
2018-06-01T15:07:54.239Z,82.17
2018-06-01T15:10:22.509Z,82.62
2018-06-01T15:12:50.779Z,82.00
2018-06-01T15:15:19.083Z,80.87
2018-06-01T15:17:47.354Z,80.94
2018-06-01T15:20:15.648Z,82.03
2018-06-01T15:22:43.902Z,81.88
2018-06-01T15:25:12.178Z,81.72
2018-06-01T15:27:40.454Z,82.26
2018-06-01T15:30:08.742Z,82.29
2018-06-01T15:32:37.007Z,82.85
2018-06-01T15:35:05.274Z,81.23
2018-06-01T15:37:33.561Z,82.58
2018-06-01T15:40:01.830Z,82.74
2018-06-01T15:42:30.118Z,81.62
2018-06-01T15:44:58.402Z,81.98
2018-06-01T15:47:26.675Z,83.03
2018-06-01T15:49:54.964Z,82.64
2018-06-01T15:52:23.251Z,82.64
2018-06-01T15:54:51.814Z,82.30
2018-06-01T15:57:20.110Z,81.31
2018-06-01T15:59:48.389Z,81.11
2018-06-01T16:02:16.662Z,83.01
2018-06-01T16:04:45.181Z,81.80
2018-06-01T16:07:13.476Z,81.37
2018-06-01T16:09:41.742Z,81.56
2018-06-01T16:12:10.041Z,81.27
2018-06-01T16:14:38.309Z,80.06
2018-06-01T16:17:06.581Z,80.27
2018-06-01T16:19:34.846Z,80.25
2018-06-01T16:22:03.129Z,81.76
2018-06-01T16:24:31.403Z,81.92
2018-06-01T16:26:59.670Z,80.30
2018-06-01T16:29:27.957Z,80.26
2018-06-01T16:31:56.221Z,80.99
2018-06-01T16:34:24.495Z,80.32
2018-06-01T16:36:52.778Z,79.81
2018-06-01T16:39:21.066Z,80.33
2018-06-01T16:41:49.333Z,80.49
2018-06-01T16:44:17.630Z,80.30
2018-06-01T16:46:45.897Z,80.42
2018-06-01T16:49:14.849Z,81.17
2018-06-01T16:51:43.159Z,80.68
2018-06-01T16:54:11.430Z,79.96
2018-06-01T16:56:39.701Z,81.42
2018-06-01T16:59:07.995Z,79.68
2018-06-01T17:01:36.262Z,79.97
2018-06-01T17:04:04.529Z,80.25
2018-06-01T17:06:32.811Z,80.39
2018-06-01T17:09:01.073Z,80.60
2018-06-01T17:11:29.353Z,81.68
2018-06-01T17:13:58.241Z,81.54
2018-06-01T17:16:26.506Z,80.43
2018-06-01T17:18:54.775Z,80.58
2018-06-01T17:21:23.053Z,80.03
2018-06-01T17:23:51.326Z,81.00
2018-06-01T17:26:19.605Z,80.68
2018-06-01T17:28:47.869Z,81.20
2018-06-01T17:31:16.143Z,81.26
2018-06-01T17:33:44.422Z,80.44
2018-06-01T17:36:12.692Z,81.15
2018-06-01T17:38:40.967Z,81.23
2018-06-01T17:41:14.987Z,81.85
2018-06-01T17:43:43.257Z,82.63
2018-06-01T17:46:11.534Z,81.98
2018-06-01T17:48:39.811Z,82.40
2018-06-01T17:51:08.089Z,82.89
2018-06-01T17:53:36.362Z,81.99
2018-06-01T17:56:04.630Z,82.16
2018-06-01T17:58:32.910Z,80.12
2018-06-01T18:01:01.206Z,80.96
2018-06-01T18:03:29.477Z,81.69
2018-06-01T18:05:57.750Z,82.13
2018-06-01T18:08:26.022Z,82.07
2018-06-01T18:10:54.298Z,82.23
2018-06-01T18:13:22.570Z,82.08
2018-06-01T18:15:50.840Z,81.25
2018-06-01T18:18:19.106Z,81.33
2018-06-01T18:20:47.390Z,81.07
2018-06-01T18:23:15.662Z,81.41
2018-06-01T18:25:43.942Z,82.13
2018-06-01T18:28:12.210Z,81.51
2018-06-01T18:30:40.486Z,80.39
2018-06-01T18:33:08.759Z,81.04
2018-06-01T18:35:37.037Z,80.78
2018-06-01T18:38:05.307Z,79.24
2018-06-01T18:40:33.590Z,79.31
2018-06-01T18:43:01.861Z,80.29
2018-06-01T18:45:30.143Z,81.12
2018-06-01T18:47:58.410Z,80.91
2018-06-01T18:50:26.694Z,81.25
2018-06-01T18:52:54.966Z,81.27
2018-06-01T18:55:23.242Z,80.18
2018-06-01T18:57:51.516Z,78.68
2018-06-01T19:00:19.798Z,80.26
2018-06-01T19:02:49.126Z,79.40
2018-06-01T19:05:17.397Z,79.57
2018-06-01T19:07:45.674Z,79.68
2018-06-01T19:10:13.942Z,80.12
2018-06-01T19:12:42.218Z,80.26
2018-06-01T19:15:10.494Z,79.35
2018-06-01T19:17:39.306Z,79.39
2018-06-01T19:20:08.182Z,80.59
2018-06-01T19:22:36.466Z,80.42
2018-06-01T19:25:04.726Z,81.62
2018-06-01T19:27:33.002Z,82.30
2018-06-01T19:30:01.282Z,82.41
2018-06-01T19:32:29.555Z,82.64
2018-06-01T19:34:57.827Z,82.13
2018-06-01T19:37:26.110Z,82.50
2018-06-01T19:39:54.397Z,82.67
2018-06-01T19:42:22.667Z,81.94
2018-06-01T19:44:50.945Z,82.43
2018-06-01T19:47:20.305Z,82.20
2018-06-01T19:49:48.582Z,82.02
2018-06-01T19:52:16.849Z,81.89
2018-06-01T19:54:45.126Z,82.78
2018-06-01T19:57:13.389Z,82.71
2018-06-01T19:59:41.661Z,82.17
2018-06-01T20:02:09.934Z,81.77
2018-06-01T20:04:38.205Z,81.74
2018-06-01T20:07:06.690Z,82.18
2018-06-01T20:09:34.925Z,81.95
2018-06-01T20:12:03.197Z,82.10
2018-06-01T20:14:31.492Z,81.84
2018-06-01T20:16:59.754Z,82.13
2018-06-01T20:19:28.030Z,80.76
2018-06-01T20:21:56.301Z,81.25
2018-06-01T20:24:24.579Z,81.42
2018-06-01T20:26:52.844Z,81.37
2018-06-01T20:29:21.118Z,82.08
2018-06-01T20:31:49.455Z,82.02
2018-06-01T20:34:17.730Z,82.38
2018-06-01T20:36:46.036Z,82.47
2018-06-01T20:39:14.297Z,82.33
2018-06-01T20:41:42.574Z,82.67
2018-06-01T20:44:10.842Z,82.45
2018-06-01T20:46:39.117Z,82.11
2018-06-01T20:49:07.387Z,81.68
2018-06-01T20:51:36.462Z,82.29
2018-06-01T20:54:04.738Z,82.75
2018-06-01T20:56:33.010Z,82.35
2018-06-01T20:59:01.284Z,82.55
2018-06-01T21:01:29.558Z,82.55
2018-06-01T21:03:57.835Z,82.34
2018-06-01T21:06:26.110Z,82.32
2018-06-01T21:08:54.385Z,81.78
2018-06-01T21:11:22.669Z,82.55
2018-06-01T21:13:50.943Z,82.01
2018-06-01T21:16:20.126Z,82.33
2018-06-01T21:18:49.545Z,81.65
2018-06-01T21:21:17.951Z,80.54
2018-06-01T21:23:46.198Z,80.53
2018-06-01T21:26:14.473Z,81.43
2018-06-01T21:28:42.741Z,81.83
2018-06-01T21:31:11.027Z,81.64
2018-06-01T21:33:39.299Z,82.27
2018-06-01T21:36:07.571Z,81.60
2018-06-01T21:38:36.638Z,81.82
2018-06-01T21:41:04.906Z,82.13
2018-06-01T21:43:33.189Z,82.05
2018-06-01T21:46:01.457Z,82.83
2018-06-01T21:48:29.745Z,82.16
2018-06-01T21:50:58.009Z,82.41
2018-06-01T21:53:26.301Z,82.33
2018-06-01T21:55:54.562Z,81.29
2018-06-01T21:58:22.877Z,82.25
2018-06-01T22:00:51.145Z,82.21
2018-06-01T22:03:19.435Z,82.53
2018-06-01T22:05:47.706Z,82.69
2018-06-01T22:08:15.978Z,82.75
2018-06-01T22:10:44.248Z,82.74
2018-06-01T22:13:12.522Z,82.56
2018-06-01T22:15:40.793Z,81.28
2018-06-01T22:18:09.085Z,81.10
2018-06-01T22:20:37.358Z,81.00
2018-06-01T22:23:05.645Z,81.58
2018-06-01T22:25:33.939Z,81.86
2018-06-01T22:28:02.217Z,81.48
2018-06-01T22:30:30.493Z,81.94
2018-06-01T22:32:58.761Z,81.90
2018-06-01T22:35:27.049Z,81.91
2018-06-01T22:37:55.311Z,81.64
2018-06-01T22:40:23.588Z,81.92
2018-06-01T22:42:51.860Z,82.35
2018-06-01T22:45:20.137Z,81.36
2018-06-01T22:47:48.410Z,81.69
2018-06-01T22:50:16.685Z,81.33
2018-06-01T22:52:44.960Z,81.82
2018-06-01T22:55:13.238Z,81.89
2018-06-01T22:57:42.506Z,82.01
2018-06-01T23:00:10.805Z,82.73
2018-06-01T23:02:38.792Z,82.40
2018-06-01T23:05:07.169Z,82.60
2018-06-01T23:07:35.773Z,82.24
2018-06-01T23:10:04.039Z,82.65
2018-06-01T23:12:32.310Z,82.52
2018-06-01T23:15:00.582Z,82.44
2018-06-01T23:17:28.857Z,82.42
2018-06-01T23:19:57.133Z,82.18
2018-06-01T23:22:25.424Z,81.64
2018-06-01T23:24:53.690Z,82.40
2018-06-01T23:27:21.963Z,83.06
2018-06-01T23:29:50.233Z,82.00
2018-06-01T23:32:19.094Z,82.29
2018-06-01T23:34:47.366Z,82.69
2018-06-01T23:37:15.646Z,82.06
2018-06-01T23:39:43.914Z,82.13
2018-06-01T23:42:12.196Z,82.44
2018-06-01T23:44:41.136Z,82.75
2018-06-01T23:47:09.532Z,83.00
2018-06-01T23:49:37.765Z,82.49
2018-06-01T23:52:06.054Z,82.64
2018-06-01T23:54:34.329Z,82.49
2018-06-01T23:57:02.606Z,82.47
2018-06-01T23:59:30.901Z,82.26
